Bei Facebook empfehlenBei Twitter postenGoogle plusPinterest

Das Wetter im Erzgebirge am 16.03.2015

Wetter und Klima am 16.03.2015 Holzhau im Erzgebirge (630m ü.NN)
Letzte gemessene Temperatur und Uhrzeit der Messung23:45:00 Uhr4.70 °C
Temperatur (Maximum / Höchstwert) und Uhrzeit der Messung12:45:00 Uhr8.70 °C
Temperatur (Minimum / Tiefstwert) und Uhrzeit der Messung06:45:003.00 °C
Errechneter Absolutwert der Temperaturschwankungen zwischen Tmin und Tmax des Tages5.70 K
Errechnete Tagesmitteltemperatur5.43438 °C
Gesamt - Niederschlag des Tages (in flüssiger Form)0.00 Liter / m²
Luftdruck (Maximum / Höchstwert) und Zeitpunkt der Messung21:45:00 Uhr1025.70 hPa
Luftdruck (Minimum / Tiefstwert) und Zeitpunkt der Messung06:00:00 Uhr1021.90 hPa
Errechneter Absolutwert der Luftdruckschwankungen des Tages3.80 hPa
Höchste gemessene Windgeschwindigkeit und Uhrzeit der Messung08:15:00 Uhr22.68 km/h
Errechnete Windhäufigkeit in Relation zu den Messwerten des Tages68.75000 %
Niedrigste Windkühle (Windchill) und Zeitpunkt der Messung06:00:00 Uhr-0.80 °C
Taupunkt (Maximum / Höchstwert) und Uhrzeit der Messung12:30:00 Uhr3.80 °C
Taupunkt (Minimum / Tiefstwert) und Uhrzeit der Messung22:30:001.40 °C
Anzahl der automatisch eingelesenen Messwerte 96

Detaillierte Wetter- und Klima- Messwerte für den 16.03.2015 in Holzhau im Erzgebirge (630m ü.NN)
ZeitTemperaturLuftdruckRel. LuftfeuchteWindWindrichtungWindchillTaupunktNiederschlag l/m²
23:45:004.70 °C1024.40 hPa83.00 %10.08 km/hNO2.30 °C2.10 °C 
23:30:004.60 °C1024.60 hPa83.00 %2.00 °C 
23:15:004.60 °C1024.80 hPa83.00 %5.04 km/hSO3.60 °C2.00 °C 
23:00:004.60 °C1024.70 hPa83.00 %9.36 km/hSSO2.30 °C2.00 °C 
22:45:004.40 °C1024.90 hPa82.00 %11.16 km/hSO1.70 °C1.60 °C 
22:30:004.40 °C1025.00 hPa81.00 %1.40 °C 
22:15:004.60 °C1025.30 hPa80.00 %1.50 °C 
22:00:005.10 °C1025.50 hPa79.00 %1.80 °C 
21:45:005.30 °C1025.70 hPa79.00 %7.20 km/hOSO3.70 °C2.00 °C 
21:30:005.30 °C1025.10 hPa79.00 %2.00 °C 
21:15:005.30 °C1024.90 hPa79.00 %8.28 km/hSO3.40 °C2.00 °C 
21:00:005.40 °C1024.80 hPa78.00 %1.90 °C 
20:45:005.60 °C1025.10 hPa77.00 %10.80 km/hOSO3.20 °C1.90 °C 
20:30:005.80 °C1024.90 hPa78.00 %2.30 °C 
20:15:005.80 °C1024.80 hPa77.00 %6.84 km/hSO4.40 °C2.10 °C 
20:00:005.80 °C1024.80 hPa77.00 %2.10 °C 
19:45:005.90 °C1024.70 hPa76.00 %10.08 km/hSSO3.70 °C2.00 °C 
19:30:005.90 °C1024.70 hPa76.00 %2.00 °C 
19:15:006.10 °C1024.50 hPa76.00 %2.20 °C 
19:00:006.10 °C1024.60 hPa76.00 %2.20 °C 
18:45:006.10 °C1024.40 hPa76.00 %6.48 km/hOSO4.80 °C2.20 °C 
18:30:006.20 °C1024.40 hPa75.00 %4.32 km/hSO6.20 °C2.10 °C 
18:15:006.40 °C1024.40 hPa74.00 %6.48 km/hSO5.20 °C2.10 °C 
18:00:006.70 °C1024.40 hPa73.00 %6.12 km/hOSO5.60 °C2.20 °C 
17:45:006.90 °C1024.20 hPa71.00 %12.96 km/hSO4.40 °C2.00 °C 
17:30:007.20 °C1024.00 hPa70.00 %13.68 km/hSO4.70 °C2.10 °C 
17:15:007.50 °C1023.60 hPa69.00 %10.44 km/hOSO5.60 °C2.20 °C 
17:00:008.20 °C1023.50 hPa67.00 %8.64 km/hOSO6.80 °C2.40 °C 
16:45:008.50 °C1023.90 hPa66.00 %10.44 km/hSO6.80 °C2.50 °C 
16:30:008.60 °C1023.60 hPa67.00 %11.52 km/hSO6.70 °C2.80 °C 
16:15:008.40 °C1023.80 hPa68.00 %7.20 km/hNO7.30 °C2.80 °C 
16:00:008.20 °C1023.50 hPa70.00 %7.20 km/hOSO7.10 °C3.10 °C 
15:45:007.90 °C1023.50 hPa70.00 %2.80 °C 
15:30:008.10 °C1023.50 hPa70.00 %3.00 °C 
15:15:008.20 °C1023.70 hPa69.00 %16.56 km/hW5.50 °C2.90 °C 
15:00:008.10 °C1023.60 hPa69.00 %2.80 °C 
14:45:008.20 °C1023.80 hPa69.00 %7.56 km/hSSO7.00 °C2.90 °C 
14:30:007.80 °C1023.70 hPa70.00 %17.64 km/hSSO4.90 °C2.70 °C 
14:15:007.80 °C1023.80 hPa71.00 %2.90 °C 
14:00:007.60 °C1023.80 hPa71.00 %4.68 km/hSO7.60 °C2.70 °C 
13:45:007.60 °C1023.80 hPa71.00 %3.60 km/hOSO7.60 °C2.70 °C 
13:30:008.40 °C1023.70 hPa70.00 %5.04 km/hSSO7.90 °C3.30 °C 
13:15:008.40 °C1023.40 hPa70.00 %3.24 km/hOSO8.40 °C3.30 °C 
13:00:008.60 °C1023.50 hPa71.00 %3.60 °C 
12:45:008.70 °C1023.50 hPa70.00 %7.56 km/hOSO7.60 °C3.50 °C 
12:30:008.60 °C1023.60 hPa72.00 %3.80 °C 
12:15:008.10 °C1023.60 hPa74.00 %3.80 °C 
12:00:007.50 °C1023.40 hPa74.00 %1.80 km/hSSO7.50 °C3.20 °C 
11:45:007.60 °C1023.40 hPa74.00 %10.44 km/hSO5.70 °C3.30 °C 
11:30:007.10 °C1022.90 hPa77.00 %3.30 °C 
11:15:006.80 °C1022.80 hPa77.00 %8.64 km/hOSO5.10 °C3.10 °C 
11:00:006.70 °C1022.60 hPa77.00 %18.00 km/hSO3.40 °C3.00 °C 
10:45:006.40 °C1022.50 hPa79.00 %7.20 km/hOSO5.00 °C3.00 °C 
10:30:006.10 °C1022.50 hPa79.00 %7.56 km/hNNO4.50 °C2.70 °C 
10:15:005.90 °C1022.70 hPa80.00 %11.16 km/hSW3.50 °C2.70 °C 
10:00:005.80 °C1022.50 hPa81.00 %16.56 km/hOSO2.50 °C2.80 °C 
09:45:005.50 °C1022.40 hPa81.00 %5.76 km/hSW4.40 °C2.50 °C 
09:30:005.30 °C1022.50 hPa82.00 %9.00 km/hOSO3.20 °C2.50 °C 
09:15:005.20 °C1022.70 hPa83.00 %2.60 °C 
09:00:004.90 °C1022.60 hPa84.00 %2.40 °C 
08:45:004.70 °C1022.50 hPa85.00 %10.80 km/hSO2.10 °C2.40 °C 
08:30:004.30 °C1022.40 hPa86.00 %16.56 km/hSO0.60 °C2.20 °C 
08:15:004.10 °C1022.50 hPa87.00 %22.68 km/hO-0.40 °C2.10 °C 
08:00:003.80 °C1022.40 hPa87.00 %21.60 km/hS-0.60 °C1.80 °C 
07:45:003.40 °C1022.30 hPa88.00 %14.04 km/hOSO-0.10 °C1.60 °C 
07:30:003.30 °C1022.40 hPa89.00 %1.70 °C 
07:15:003.10 °C1022.30 hPa89.00 %1.50 °C 
07:00:003.10 °C1022.20 hPa89.00 %1.50 °C 
06:45:003.00 °C1022.10 hPa89.00 %8.64 km/hSO0.60 °C1.40 °C 
06:30:003.00 °C1022.10 hPa89.00 %6.48 km/hSSO1.30 °C1.40 °C 
06:15:003.10 °C1022.10 hPa89.00 %7.92 km/hONO0.90 °C1.50 °C 
06:00:003.20 °C1021.90 hPa89.00 %17.28 km/hO-0.80 °C1.60 °C 
05:45:003.30 °C1021.90 hPa89.00 %10.80 km/hSO0.40 °C1.70 °C 
05:30:003.30 °C1022.00 hPa89.00 %11.16 km/hOSO0.40 °C1.70 °C 
05:15:003.30 °C1022.10 hPa89.00 %1.44 km/hNO3.30 °C1.70 °C 
05:00:003.20 °C1022.10 hPa89.00 %11.88 km/hNO0.10 °C1.60 °C 
04:45:003.20 °C1022.10 hPa89.00 %10.80 km/hNO0.30 °C1.60 °C 
04:30:003.10 °C1022.40 hPa89.00 %13.32 km/hONO-0.30 °C1.50 °C 
04:15:003.20 °C1022.30 hPa89.00 %9.00 km/hSO0.80 °C1.60 °C 
04:00:003.20 °C1022.30 hPa89.00 %1.60 °C 
03:45:003.20 °C1022.50 hPa89.00 %1.60 °C 
03:30:003.30 °C1022.40 hPa89.00 %4.32 km/hO3.30 °C1.70 °C 
03:15:003.40 °C1022.40 hPa89.00 %1.80 °C 
03:00:003.50 °C1022.60 hPa89.00 %18.00 km/hSO-0.60 °C1.90 °C 
02:45:003.40 °C1022.50 hPa89.00 %1.80 °C 
02:30:003.60 °C1022.50 hPa89.00 %15.84 km/hO-0.10 °C2.00 °C 
02:15:003.60 °C1022.60 hPa89.00 %2.00 °C 
02:00:003.60 °C1022.90 hPa89.00 %4.32 km/hSO3.60 °C2.00 °C 
01:45:003.60 °C1023.10 hPa89.00 %18.36 km/hSO-0.50 °C2.00 °C 
01:30:003.50 °C1023.20 hPa89.00 %5.40 km/hNO2.20 °C1.90 °C 
01:15:003.60 °C1023.10 hPa89.00 %5.76 km/hOSO2.20 °C2.00 °C 
01:00:003.60 °C1023.20 hPa89.00 %14.40 km/hOSO0.10 °C2.00 °C 
00:45:003.60 °C1023.10 hPa89.00 %10.44 km/hOSO0.90 °C2.00 °C 
00:30:003.60 °C1023.10 hPa89.00 %6.12 km/hNNO2.10 °C2.00 °C 
00:15:003.80 °C1023.50 hPa89.00 %2.20 °C 
00:00:003.80 °C1024.00 hPa90.00 %12.60 km/hSO0.70 °C2.30 °C 

Permanenter Link zu dieser Seite: Wetter im Erzgebirge am 16.03.2015
Performance-Info: Die Erstellung der Seite / Statistik(en) / Tabelle(n) erforderte 5 Datenbankserver-Abfrage(n) und dauerte 125 Millisekunden. (Dieser Messwert ist von der Gesamt-Auslastung des Servers abhängig.)
Erzgebirge - Wetter | Erzgebirge - Wetter (Mobilgeräte) | Komplette Klimadatenbank